Portada
METAR-TAF:

METAR-TAF

Aeroports :

Narathiwat, Tailàndia

latitud: 6-31-12N, longitud: 101-44-36E, altitud: 5 m

Observació

L'informe es va fer fa 5 hores i 41 minuts, a les 10:00 UTC
Vent 9 kt del Nord
Temperatura 32°C
Humitat 63%
Pressió 1007 hPa
Visibilitat 10 km o més
Escasses núvols a una alçada de 2200 ft

METAR: VTSC 241000Z 36009KT 9999 FEW022 32/24 Q1007 NOSIG

Hora: 22:41 (15:41 UTC)

Pronòstic

L'informe es va fer fa 4 hores i 41 minuts, a les 11:00 UTC
Pronòstic vàlid del 24 a les 12 UTC al 25 a les 12 UTC
Vent 5 kt del Nord-Oest
Visibilitat 10 km o més
Escasses núvols a una alçada de 2000 ft

TAF: VTSC 241100Z 2412/2512 32005KT 9999 FEW020

Observacions i pronòstics meteorològics de més de 4000 aeroports (METAR i TAF).

Les estacions disponibles són els punts grocs i vermells al mapa.

Posi el ratolí al punt desitjat per veure el nom de l'estació.

Feu clic per veure les observacions i els pronòstics meteorològics.

Per canviar el mapa: feu clic els botons verds amb una creu de color negre per apropar; al botó verd amb un guió per allunyar la imatge; o en les fletxes verdes per a mapes adjacents.


METAR-TAF: